Cloverdale, California
Current Conditions -  °F | °C
As of 6:28 AM on Thursday 27 Nov 2014 (Local Time) from KSTS Reporting Station
Moderate Fog Moderate Fog  
Wind Chill: 39°   Ceiling: 200
Heat Index: 39°   Visibility: 0.5mi
Dew Point: 39°   Wind: 0mph
Humidity: 100%   Direction: NA
Pressure: 30.17"   Gusts: NA
Location:  38.81°N, 123.02°W
Report Text: KSTS 271428Z AUTO 00000KT 1/2SM FG VV002 04/04 A3017 RMK AO2
Loading
Personal Weather Stations






























Interactive Weather Map New forecast layout! Learn more

10-Day Weather Forecast

Advertisements
Track Severe Weather on mobile